sensor_id;sensor_type;location;lat;lon;timestamp;pressure;altitude;pressure_sealevel;temperature;humidity
62164;BME280;48149;51.132;7.178;2022-10-17T00:00:53;98934.72;;;19.24;100.00
62164;BME280;48149;51.132;7.178;2022-10-17T00:03:19;98940.56;;;19.15;100.00
62164;BME280;48149;51.132;7.178;2022-10-17T00:05:45;98935.81;;;19.33;100.00
62164;BME280;48149;51.132;7.178;2022-10-17T00:08:11;98937.34;;;19.08;100.00
62164;BME280;48149;51.132;7.178;2022-10-17T00:10:36;98934.53;;;19.45;100.00
62164;BME280;48149;51.132;7.178;2022-10-17T00:13:03;98936.41;;;19.45;100.00
62164;BME280;48149;51.132;7.178;2022-10-17T00:15:28;98942.72;;;19.39;100.00
62164;BME280;48149;51.132;7.178;2022-10-17T00:17:55;98940.41;;;19.47;100.00
62164;BME280;48149;51.132;7.178;2022-10-17T00:20:23;98941.06;;;19.12;100.00
62164;BME280;48149;51.132;7.178;2022-10-17T00:22:50;98940.00;;;19.13;100.00
62164;BME280;48149;51.132;7.178;2022-10-17T00:25:16;98934.69;;;19.08;100.00
62164;BME280;48149;51.132;7.178;2022-10-17T00:27:42;98940.56;;;19.15;100.00
62164;BME280;48149;51.132;7.178;2022-10-17T00:30:09;98947.03;;;19.45;100.00
62164;BME280;48149;51.132;7.178;2022-10-17T00:32:35;98949.72;;;19.70;100.00
62164;BME280;48149;51.132;7.178;2022-10-17T00:35:00;98943.72;;;19.12;100.00
62164;BME280;48149;51.132;7.178;2022-10-17T00:37:26;98947.81;;;19.45;100.00
62164;BME280;48149;51.132;7.178;2022-10-17T00:39:52;98944.06;;;19.36;100.00
62164;BME280;48149;51.132;7.178;2022-10-17T00:42:17;98944.84;;;19.32;100.00
62164;BME280;48149;51.132;7.178;2022-10-17T00:47:12;98938.53;;;19.48;100.00
62164;BME280;48149;51.132;7.178;2022-10-17T00:49:39;98945.81;;;19.10;100.00
62164;BME280;48149;51.132;7.178;2022-10-17T00:52:25;98941.88;;;19.18;100.00
62164;BME280;48149;51.132;7.178;2022-10-17T00:54:53;98950.25;;;19.57;100.00
62164;BME280;48149;51.132;7.178;2022-10-17T00:57:20;98945.69;;;19.42;100.00
62164;BME280;48149;51.132;7.178;2022-10-17T00:59:46;98950.84;;;18.97;100.00
62164;BME280;48149;51.132;7.178;2022-10-17T01:02:15;98942.63;;;19.03;100.00
62164;BME280;48149;51.132;7.178;2022-10-17T01:04:43;98937.25;;;18.88;100.00
62164;BME280;48149;51.132;7.178;2022-10-17T01:07:09;98933.59;;;18.99;100.00
62164;BME280;48149;51.132;7.178;2022-10-17T01:12:10;98939.78;;;19.25;100.00
62164;BME280;48149;51.132;7.178;2022-10-17T01:23:03;98940.84;;;19.19;100.00
62164;BME280;48149;51.132;7.178;2022-10-17T01:25:25;98948.63;;;19.41;100.00
62164;BME280;48149;51.132;7.178;2022-10-17T01:28:09;98954.34;;;19.23;100.00
62164;BME280;48149;51.132;7.178;2022-10-17T01:44:23;98947.19;;;19.13;100.00
62164;BME280;48149;51.132;7.178;2022-10-17T01:46:53;98945.88;;;19.21;100.00
62164;BME280;48149;51.132;7.178;2022-10-17T01:49:23;98954.69;;;19.36;100.00
62164;BME280;48149;51.132;7.178;2022-10-17T01:51:53;98938.19;;;19.19;100.00
62164;BME280;48149;51.132;7.178;2022-10-17T01:54:22;98937.16;;;18.68;100.00
62164;BME280;48149;51.132;7.178;2022-10-17T01:56:50;98930.19;;;19.09;100.00
62164;BME280;48149;51.132;7.178;2022-10-17T01:59:21;98932.41;;;19.42;100.00
62164;BME280;48149;51.132;7.178;2022-10-17T02:01:49;98938.94;;;19.14;100.00
62164;BME280;48149;51.132;7.178;2022-10-17T02:04:15;98932.56;;;19.10;100.00
62164;BME280;48149;51.132;7.178;2022-10-17T02:06:40;98940.63;;;18.74;100.00
62164;BME280;48149;51.132;7.178;2022-10-17T02:09:22;98938.03;;;18.84;100.00
62164;BME280;48149;51.132;7.178;2022-10-17T02:12:32;98935.69;;;18.97;100.00
62164;BME280;48149;51.132;7.178;2022-10-17T02:17:44;98927.53;;;19.14;100.00
62164;BME280;48149;51.132;7.178;2022-10-17T02:23:02;98911.28;;;18.95;100.00
62164;BME280;48149;51.132;7.178;2022-10-17T02:25:41;98912.41;;;19.09;100.00
62164;BME280;48149;51.132;7.178;2022-10-17T02:28:20;98909.44;;;19.01;100.00
62164;BME280;48149;51.132;7.178;2022-10-17T02:35:42;98923.75;;;18.48;100.00
62164;BME280;48149;51.132;7.178;2022-10-17T02:38:10;98922.13;;;18.42;100.00
62164;BME280;48149;51.132;7.178;2022-10-17T02:40:36;98927.19;;;18.90;100.00
62164;BME280;48149;51.132;7.178;2022-10-17T02:43:02;98922.41;;;18.45;100.00
62164;BME280;48149;51.132;7.178;2022-10-17T02:45:27;98919.75;;;18.40;100.00
62164;BME280;48149;51.132;7.178;2022-10-17T02:48:11;98924.38;;;18.60;100.00
62164;BME280;48149;51.132;7.178;2022-10-17T02:50:43;98926.34;;;18.80;100.00
62164;BME280;48149;51.132;7.178;2022-10-17T02:53:16;98920.56;;;18.88;100.00
62164;BME280;48149;51.132;7.178;2022-10-17T02:55:48;98919.69;;;18.77;100.00
62164;BME280;48149;51.132;7.178;2022-10-17T02:58:49;98913.66;;;18.87;100.00
62164;BME280;48149;51.132;7.178;2022-10-17T03:01:08;98925.69;;;18.57;100.00
62164;BME280;48149;51.132;7.178;2022-10-17T03:03:34;98923.41;;;18.76;100.00
62164;BME280;48149;51.132;7.178;2022-10-17T03:05:59;98929.78;;;18.80;100.00
62164;BME280;48149;51.132;7.178;2022-10-17T03:08:24;98938.44;;;18.60;100.00
62164;BME280;48149;51.132;7.178;2022-10-17T03:10:50;98932.34;;;18.60;100.00
62164;BME280;48149;51.132;7.178;2022-10-17T03:13:15;98932.66;;;18.69;100.00
62164;BME280;48149;51.132;7.178;2022-10-17T03:15:40;98933.44;;;18.69;100.00
62164;BME280;48149;51.132;7.178;2022-10-17T03:18:06;98928.88;;;18.59;100.00
62164;BME280;48149;51.132;7.178;2022-10-17T03:20:31;98932.91;;;18.67;100.00
62164;BME280;48149;51.132;7.178;2022-10-17T03:22:56;98932.44;;;18.75;100.00
62164;BME280;48149;51.132;7.178;2022-10-17T03:25:22;98926.63;;;18.78;100.00
62164;BME280;48149;51.132;7.178;2022-10-17T03:27:47;98928.56;;;19.03;100.00
62164;BME280;48149;51.132;7.178;2022-10-17T03:30:13;98926.09;;;18.86;100.00
62164;BME280;48149;51.132;7.178;2022-10-17T03:32:38;98936.94;;;18.75;100.00
62164;BME280;48149;51.132;7.178;2022-10-17T03:35:04;98925.59;;;18.42;100.00
62164;BME280;48149;51.132;7.178;2022-10-17T03:39:58;98929.69;;;18.60;100.00
62164;BME280;48149;51.132;7.178;2022-10-17T03:42:26;98931.41;;;18.81;100.00
62164;BME280;48149;51.132;7.178;2022-10-17T03:44:51;98941.38;;;18.64;100.00
62164;BME280;48149;51.132;7.178;2022-10-17T03:47:16;98936.97;;;18.85;100.00
62164;BME280;48149;51.132;7.178;2022-10-17T03:49:41;98936.59;;;18.61;100.00
62164;BME280;48149;51.132;7.178;2022-10-17T03:52:10;98938.94;;;18.57;100.00
62164;BME280;48149;51.132;7.178;2022-10-17T03:54:36;98941.91;;;18.61;100.00
62164;BME280;48149;51.132;7.178;2022-10-17T03:57:01;98936.72;;;18.81;100.00
62164;BME280;48149;51.132;7.178;2022-10-17T03:59:26;98939.84;;;18.73;100.00
62164;BME280;48149;51.132;7.178;2022-10-17T04:01:51;98941.38;;;18.64;100.00
62164;BME280;48149;51.132;7.178;2022-10-17T04:04:17;98945.06;;;18.63;100.00
62164;BME280;48149;51.132;7.178;2022-10-17T04:06:42;98952.00;;;18.69;100.00
62164;BME280;48149;51.132;7.178;2022-10-17T04:09:08;98949.94;;;18.76;100.00
62164;BME280;48149;51.132;7.178;2022-10-17T04:11:36;98948.84;;;18.72;100.00
62164;BME280;48149;51.132;7.178;2022-10-17T04:14:01;98957.34;;;18.74;100.00
62164;BME280;48149;51.132;7.178;2022-10-17T04:16:26;98958.44;;;18.78;100.00
62164;BME280;48149;51.132;7.178;2022-10-17T04:18:55;98964.25;;;18.75;100.00
62164;BME280;48149;51.132;7.178;2022-10-17T04:21:22;98962.13;;;18.77;100.00
62164;BME280;48149;51.132;7.178;2022-10-17T04:23:51;98965.31;;;18.79;100.00
62164;BME280;48149;51.132;7.178;2022-10-17T04:26:18;98964.84;;;18.87;100.00
62164;BME280;48149;51.132;7.178;2022-10-17T04:28:44;98959.69;;;18.66;100.00
62164;BME280;48149;51.132;7.178;2022-10-17T04:31:10;98958.91;;;18.70;100.00
62164;BME280;48149;51.132;7.178;2022-10-17T04:33:37;98957.59;;;18.73;100.00
62164;BME280;48149;51.132;7.178;2022-10-17T04:36:06;98954.13;;;18.72;100.00
62164;BME280;48149;51.132;7.178;2022-10-17T04:38:32;98948.34;;;18.38;100.00
62164;BME280;48149;51.132;7.178;2022-10-17T04:40:58;98957.13;;;18.81;100.00
62164;BME280;48149;51.132;7.178;2022-10-17T04:43:27;98965.44;;;18.52;100.00
62164;BME280;48149;51.132;7.178;2022-10-17T04:45:52;98973.53;;;18.41;100.00
62164;BME280;48149;51.132;7.178;2022-10-17T04:48:17;98976.91;;;18.63;100.00
62164;BME280;48149;51.132;7.178;2022-10-17T04:50:51;98983.66;;;18.81;100.00
62164;BME280;48149;51.132;7.178;2022-10-17T04:53:17;98973.19;;;18.27;100.00
62164;BME280;48149;51.132;7.178;2022-10-17T04:55:42;98980.97;;;18.39;100.00
62164;BME280;48149;51.132;7.178;2022-10-17T04:58:07;98987.88;;;18.45;100.00
62164;BME280;48149;51.132;7.178;2022-10-17T05:00:33;98984.72;;;18.43;100.00
62164;BME280;48149;51.132;7.178;2022-10-17T05:02:58;98975.56;;;18.29;100.00
62164;BME280;48149;51.132;7.178;2022-10-17T05:05:23;98979.41;;;18.43;100.00
62164;BME280;48149;51.132;7.178;2022-10-17T05:07:48;98973.81;;;18.39;100.00
62164;BME280;48149;51.132;7.178;2022-10-17T05:10:14;98969.50;;;18.65;100.00
62164;BME280;48149;51.132;7.178;2022-10-17T05:12:39;98972.47;;;18.37;100.00
62164;BME280;48149;51.132;7.178;2022-10-17T05:15:04;98966.78;;;18.55;100.00
62164;BME280;48149;51.132;7.178;2022-10-17T05:17:30;98980.78;;;18.50;100.00
62164;BME280;48149;51.132;7.178;2022-10-17T05:19:55;98978.53;;;18.32;100.00
62164;BME280;48149;51.132;7.178;2022-10-17T05:22:23;98993.38;;;18.65;100.00
62164;BME280;48149;51.132;7.178;2022-10-17T05:24:48;98983.53;;;18.60;100.00
62164;BME280;48149;51.132;7.178;2022-10-17T05:27:14;98967.97;;;18.37;100.00
62164;BME280;48149;51.132;7.178;2022-10-17T05:29:39;98982.66;;;18.50;100.00
62164;BME280;48149;51.132;7.178;2022-10-17T05:32:04;98981.03;;;18.49;100.00
62164;BME280;48149;51.132;7.178;2022-10-17T05:34:30;98972.69;;;18.72;100.00
62164;BME280;48149;51.132;7.178;2022-10-17T05:36:56;98977.69;;;18.58;100.00
62164;BME280;48149;51.132;7.178;2022-10-17T05:39:22;98988.81;;;18.24;100.00
62164;BME280;48149;51.132;7.178;2022-10-17T05:41:48;98993.31;;;18.60;100.00
62164;BME280;48149;51.132;7.178;2022-10-17T05:44:15;98990.75;;;18.70;100.00
62164;BME280;48149;51.132;7.178;2022-10-17T05:46:40;98993.09;;;18.67;100.00
62164;BME280;48149;51.132;7.178;2022-10-17T05:49:05;98988.16;;;18.85;100.00
62164;BME280;48149;51.132;7.178;2022-10-17T05:51:34;98997.53;;;18.98;100.00
62164;BME280;48149;51.132;7.178;2022-10-17T05:53:59;98993.53;;;18.90;100.00
62164;BME280;48149;51.132;7.178;2022-10-17T05:56:24;98991.75;;;18.64;100.00
62164;BME280;48149;51.132;7.178;2022-10-17T05:58:51;98991.66;;;18.91;100.00
62164;BME280;48149;51.132;7.178;2022-10-17T06:01:17;98991.63;;;18.86;100.00
62164;BME280;48149;51.132;7.178;2022-10-17T06:03:42;98988.06;;;18.65;100.00
62164;BME280;48149;51.132;7.178;2022-10-17T06:06:09;98990.66;;;19.02;100.00
62164;BME280;48149;51.132;7.178;2022-10-17T06:08:35;98999.19;;;19.09;100.00
62164;BME280;48149;51.132;7.178;2022-10-17T06:11:00;98992.19;;;19.50;100.00
62164;BME280;48149;51.132;7.178;2022-10-17T06:13:25;98994.69;;;19.19;100.00
62164;BME280;48149;51.132;7.178;2022-10-17T06:15:51;98993.31;;;19.02;100.00
62164;BME280;48149;51.132;7.178;2022-10-17T06:18:16;98990.41;;;19.13;100.00
62164;BME280;48149;51.132;7.178;2022-10-17T06:20:41;99000.50;;;19.11;100.00
62164;BME280;48149;51.132;7.178;2022-10-17T06:23:06;99012.56;;;19.39;100.00
62164;BME280;48149;51.132;7.178;2022-10-17T06:25:32;99014.34;;;19.18;100.00
62164;BME280;48149;51.132;7.178;2022-10-17T06:27:57;99019.97;;;18.75;100.00
62164;BME280;48149;51.132;7.178;2022-10-17T06:30:23;99022.31;;;19.18;100.00
62164;BME280;48149;51.132;7.178;2022-10-17T06:32:48;99029.81;;;19.37;100.00
62164;BME280;48149;51.132;7.178;2022-10-17T06:35:13;99030.56;;;19.27;100.00
62164;BME280;48149;51.132;7.178;2022-10-17T06:37:38;99030.06;;;19.30;100.00
62164;BME280;48149;51.132;7.178;2022-10-17T06:40:05;99041.75;;;19.39;100.00
62164;BME280;48149;51.132;7.178;2022-10-17T06:42:33;99041.56;;;19.51;100.00
62164;BME280;48149;51.132;7.178;2022-10-17T06:44:59;99031.78;;;19.56;100.00
62164;BME280;48149;51.132;7.178;2022-10-17T06:47:24;99026.53;;;19.14;100.00
62164;BME280;48149;51.132;7.178;2022-10-17T06:49:49;99034.22;;;19.11;100.00
62164;BME280;48149;51.132;7.178;2022-10-17T06:52:15;99030.28;;;19.24;100.00
62164;BME280;48149;51.132;7.178;2022-10-17T06:54:41;99037.94;;;19.77;100.00
62164;BME280;48149;51.132;7.178;2022-10-17T06:57:06;99045.91;;;19.15;100.00
62164;BME280;48149;51.132;7.178;2022-10-17T06:59:40;99042.69;;;19.65;100.00
62164;BME280;48149;51.132;7.178;2022-10-17T07:02:05;99039.09;;;19.34;100.00
62164;BME280;48149;51.132;7.178;2022-10-17T07:04:30;99048.47;;;19.47;100.00
62164;BME280;48149;51.132;7.178;2022-10-17T07:06:56;99044.66;;;19.33;100.00
62164;BME280;48149;51.132;7.178;2022-10-17T07:09:21;99044.56;;;19.75;100.00
62164;BME280;48149;51.132;7.178;2022-10-17T07:11:47;99050.13;;;19.68;100.00
62164;BME280;48149;51.132;7.178;2022-10-17T07:14:12;99053.41;;;20.05;100.00
62164;BME280;48149;51.132;7.178;2022-10-17T07:16:37;99060.34;;;20.16;100.00
62164;BME280;48149;51.132;7.178;2022-10-17T07:19:02;99060.66;;;20.70;100.00
62164;BME280;48149;51.132;7.178;2022-10-17T07:21:28;99087.22;;;20.30;100.00
62164;BME280;48149;51.132;7.178;2022-10-17T07:23:53;99089.63;;;20.52;100.00
62164;BME280;48149;51.132;7.178;2022-10-17T07:26:19;99084.00;;;20.23;100.00
62164;BME280;48149;51.132;7.178;2022-10-17T07:28:45;99095.19;;;20.30;100.00
62164;BME280;48149;51.132;7.178;2022-10-17T07:31:15;99084.00;;;20.13;100.00
62164;BME280;48149;51.132;7.178;2022-10-17T07:33:40;99083.53;;;20.41;100.00
62164;BME280;48149;51.132;7.178;2022-10-17T07:36:06;99081.38;;;20.99;100.00
62164;BME280;48149;51.132;7.178;2022-10-17T07:38:31;99077.41;;;20.51;100.00
62164;BME280;48149;51.132;7.178;2022-10-17T07:40:57;99083.28;;;20.58;100.00
62164;BME280;48149;51.132;7.178;2022-10-17T07:43:23;99079.53;;;20.69;100.00
62164;BME280;48149;51.132;7.178;2022-10-17T07:45:49;99077.13;;;20.47;100.00
62164;BME280;48149;51.132;7.178;2022-10-17T07:48:14;99080.34;;;20.69;100.00
62164;BME280;48149;51.132;7.178;2022-10-17T07:50:39;99086.72;;;20.63;100.00
62164;BME280;48149;51.132;7.178;2022-10-17T07:53:04;99076.81;;;20.99;100.00
62164;BME280;48149;51.132;7.178;2022-10-17T07:55:30;99088.56;;;20.88;100.00
62164;BME280;48149;51.132;7.178;2022-10-17T07:57:55;99083.00;;;20.59;100.00
62164;BME280;48149;51.132;7.178;2022-10-17T08:00:23;99080.81;;;21.07;100.00
62164;BME280;48149;51.132;7.178;2022-10-17T08:02:48;99074.44;;;20.93;100.00
62164;BME280;48149;51.132;7.178;2022-10-17T08:05:13;99077.28;;;21.42;100.00
62164;BME280;48149;51.132;7.178;2022-10-17T08:07:38;99069.63;;;21.20;100.00
62164;BME280;48149;51.132;7.178;2022-10-17T08:10:05;99066.19;;;21.04;100.00
62164;BME280;48149;51.132;7.178;2022-10-17T08:12:30;99060.31;;;20.97;100.00
62164;BME280;48149;51.132;7.178;2022-10-17T08:14:58;99063.75;;;21.92;100.00
62164;BME280;48149;51.132;7.178;2022-10-17T08:17:23;99069.19;;;21.67;100.00
62164;BME280;48149;51.132;7.178;2022-10-17T08:19:48;99065.06;;;21.95;100.00
62164;BME280;48149;51.132;7.178;2022-10-17T08:22:14;99069.31;;;21.32;100.00
62164;BME280;48149;51.132;7.178;2022-10-17T08:24:39;99074.81;;;22.14;100.00
62164;BME280;48149;51.132;7.178;2022-10-17T08:27:06;99079.06;;;22.15;100.00
62164;BME280;48149;51.132;7.178;2022-10-17T08:29:36;99075.47;;;21.81;100.00
62164;BME280;48149;51.132;7.178;2022-10-17T08:32:01;99081.53;;;22.02;100.00
62164;BME280;48149;51.132;7.178;2022-10-17T08:34:26;99087.31;;;22.53;100.00
62164;BME280;48149;51.132;7.178;2022-10-17T08:36:51;99091.75;;;22.67;100.00
62164;BME280;48149;51.132;7.178;2022-10-17T08:39:19;99098.97;;;24.98;90.14
62164;BME280;48149;51.132;7.178;2022-10-17T08:41:48;99105.16;;;25.25;90.57
62164;BME280;48149;51.132;7.178;2022-10-17T08:44:28;99102.41;;;25.58;86.87
62164;BME280;48149;51.132;7.178;2022-10-17T08:46:57;99103.91;;;27.33;75.58
62164;BME280;48149;51.132;7.178;2022-10-17T08:52:14;99104.25;;;26.78;77.78
62164;BME280;48149;51.132;7.178;2022-10-17T08:54:44;99099.84;;;26.02;79.18
62164;BME280;48149;51.132;7.178;2022-10-17T08:57:11;99110.53;;;25.66;86.53
62164;BME280;48149;51.132;7.178;2022-10-17T08:59:37;99114.81;;;25.81;83.80
62164;BME280;48149;51.132;7.178;2022-10-17T09:02:20;99119.75;;;24.55;88.21
62164;BME280;48149;51.132;7.178;2022-10-17T09:07:52;99117.50;;;24.06;94.84
62164;BME280;48149;51.132;7.178;2022-10-17T09:15:41;99127.25;;;25.50;86.57
62164;BME280;48149;51.132;7.178;2022-10-17T09:18:12;99143.63;;;25.16;89.03
62164;BME280;48149;51.132;7.178;2022-10-17T09:20:41;99143.84;;;26.28;79.59
62164;BME280;48149;51.132;7.178;2022-10-17T09:23:19;99140.59;;;27.29;75.34
62164;BME280;48149;51.132;7.178;2022-10-17T09:25:46;99137.97;;;28.97;65.81
62164;BME280;48149;51.132;7.178;2022-10-17T09:28:14;99141.50;;;27.24;75.89
62164;BME280;48149;51.132;7.178;2022-10-17T09:30:42;99140.84;;;26.30;77.71
62164;BME280;48149;51.132;7.178;2022-10-17T09:33:12;99160.09;;;25.09;88.56
62164;BME280;48149;51.132;7.178;2022-10-17T09:35:38;99171.53;;;27.48;74.92
62164;BME280;48149;51.132;7.178;2022-10-17T09:38:12;99167.34;;;26.81;77.09
62164;BME280;48149;51.132;7.178;2022-10-17T09:40:39;99162.66;;;27.96;74.73
62164;BME280;48149;51.132;7.178;2022-10-17T09:43:04;99172.09;;;28.84;67.67
62164;BME280;48149;51.132;7.178;2022-10-17T09:45:31;99176.34;;;28.34;72.08
62164;BME280;48149;51.132;7.178;2022-10-17T09:52:52;99183.69;;;24.37;92.29
62164;BME280;48149;51.132;7.178;2022-10-17T09:55:25;99183.34;;;24.02;95.95
62164;BME280;48149;51.132;7.178;2022-10-17T09:57:55;99185.94;;;24.30;94.77
62164;BME280;48149;51.132;7.178;2022-10-17T10:00:22;99174.47;;;24.81;91.74
62164;BME280;48149;51.132;7.178;2022-10-17T10:02:48;99179.91;;;23.25;100.00
62164;BME280;48149;51.132;7.178;2022-10-17T10:05:14;99187.06;;;23.29;100.00
62164;BME280;48149;51.132;7.178;2022-10-17T10:07:40;99184.03;;;23.07;100.00
62164;BME280;48149;51.132;7.178;2022-10-17T10:10:07;99184.63;;;23.62;100.00
62164;BME280;48149;51.132;7.178;2022-10-17T10:12:46;99190.34;;;23.21;100.00
62164;BME280;48149;51.132;7.178;2022-10-17T10:15:34;99190.06;;;23.52;100.00
62164;BME280;48149;51.132;7.178;2022-10-17T10:20:29;99195.94;;;24.01;99.02
62164;BME280;48149;51.132;7.178;2022-10-17T10:25:29;99203.81;;;23.64;100.00
62164;BME280;48149;51.132;7.178;2022-10-17T10:27:55;99201.06;;;23.74;100.00
62164;BME280;48149;51.132;7.178;2022-10-17T10:30:24;99215.09;;;23.61;100.00
62164;BME280;48149;51.132;7.178;2022-10-17T10:32:51;99204.91;;;23.34;100.00
62164;BME280;48149;51.132;7.178;2022-10-17T10:35:33;99202.34;;;24.00;97.42
62164;BME280;48149;51.132;7.178;2022-10-17T10:38:00;99215.00;;;24.18;99.03
62164;BME280;48149;51.132;7.178;2022-10-17T10:40:27;99211.34;;;24.09;98.54
62164;BME280;48149;51.132;7.178;2022-10-17T10:42:55;99217.84;;;24.64;94.35
62164;BME280;48149;51.132;7.178;2022-10-17T10:45:25;99219.19;;;25.18;90.25
62164;BME280;48149;51.132;7.178;2022-10-17T10:47:51;99213.50;;;24.87;91.64
62164;BME280;48149;51.132;7.178;2022-10-17T10:50:31;99209.22;;;25.37;91.93
62164;BME280;48149;51.132;7.178;2022-10-17T10:55:48;99214.84;;;25.03;95.02
62164;BME280;48149;51.132;7.178;2022-10-17T10:58:38;99213.63;;;24.39;98.46
62164;BME280;48149;51.132;7.178;2022-10-17T11:01:04;99231.13;;;24.08;100.00
62164;BME280;48149;51.132;7.178;2022-10-17T11:03:32;99238.72;;;24.25;100.00
62164;BME280;48149;51.132;7.178;2022-10-17T11:06:05;99243.13;;;23.92;100.00
62164;BME280;48149;51.132;7.178;2022-10-17T11:08:46;99244.13;;;23.72;100.00
62164;BME280;48149;51.132;7.178;2022-10-17T11:13:51;99250.47;;;23.53;100.00
62164;BME280;48149;51.132;7.178;2022-10-17T11:19:12;99257.44;;;23.77;100.00
62164;BME280;48149;51.132;7.178;2022-10-17T11:21:45;99259.00;;;23.55;100.00
62164;BME280;48149;51.132;7.178;2022-10-17T11:24:14;99253.69;;;23.50;100.00
62164;BME280;48149;51.132;7.178;2022-10-17T11:26:43;99261.38;;;23.85;100.00
62164;BME280;48149;51.132;7.178;2022-10-17T11:29:10;99263.31;;;23.51;100.00
62164;BME280;48149;51.132;7.178;2022-10-17T11:31:37;99257.75;;;23.47;100.00
62164;BME280;48149;51.132;7.178;2022-10-17T11:34:22;99239.31;;;23.12;100.00
62164;BME280;48149;51.132;7.178;2022-10-17T11:36:50;99223.38;;;23.30;100.00
62164;BME280;48149;51.132;7.178;2022-10-17T11:46:37;99261.25;;;23.43;100.00
62164;BME280;48149;51.132;7.178;2022-10-17T11:49:13;99259.28;;;23.82;100.00
62164;BME280;48149;51.132;7.178;2022-10-17T11:51:44;99259.84;;;23.50;100.00
62164;BME280;48149;51.132;7.178;2022-10-17T12:09:15;99252.41;;;23.47;100.00
62164;BME280;48149;51.132;7.178;2022-10-17T12:11:47;99252.53;;;23.27;100.00
62164;BME280;48149;51.132;7.178;2022-10-17T12:14:35;99267.38;;;23.43;100.00
62164;BME280;48149;51.132;7.178;2022-10-17T12:17:00;99268.22;;;23.67;100.00
62164;BME280;48149;51.132;7.178;2022-10-17T12:19:33;99269.22;;;23.48;100.00
62164;BME280;48149;51.132;7.178;2022-10-17T12:22:01;99272.53;;;23.34;100.00
62164;BME280;48149;51.132;7.178;2022-10-17T12:28:00;99281.53;;;23.38;100.00
62164;BME280;48149;51.132;7.178;2022-10-17T12:29:58;99270.88;;;23.44;100.00
62164;BME280;48149;51.132;7.178;2022-10-17T12:32:23;99275.56;;;23.57;100.00
62164;BME280;48149;51.132;7.178;2022-10-17T12:34:52;99286.91;;;23.96;100.00
62164;BME280;48149;51.132;7.178;2022-10-17T12:37:42;99275.97;;;23.69;100.00
62164;BME280;48149;51.132;7.178;2022-10-17T12:42:50;99261.44;;;23.17;100.00
62164;BME280;48149;51.132;7.178;2022-10-17T12:46:02;99259.69;;;23.65;100.00
62164;BME280;48149;51.132;7.178;2022-10-17T12:48:02;99273.69;;;23.57;100.00
62164;BME280;48149;51.132;7.178;2022-10-17T12:53:14;99277.28;;;23.71;100.00
62164;BME280;48149;51.132;7.178;2022-10-17T12:55:41;99290.72;;;23.27;100.00
62164;BME280;48149;51.132;7.178;2022-10-17T12:58:11;99287.66;;;23.10;100.00
62164;BME280;48149;51.132;7.178;2022-10-17T13:03:11;99288.34;;;23.26;100.00
62164;BME280;48149;51.132;7.178;2022-10-17T13:05:39;99296.28;;;23.41;100.00
62164;BME280;48149;51.132;7.178;2022-10-17T13:08:06;99295.28;;;23.27;100.00
62164;BME280;48149;51.132;7.178;2022-10-17T13:10:33;99294.78;;;23.59;100.00
62164;BME280;48149;51.132;7.178;2022-10-17T13:13:04;99300.19;;;23.49;100.00
62164;BME280;48149;51.132;7.178;2022-10-17T13:15:30;99306.22;;;23.64;100.00
62164;BME280;48149;51.132;7.178;2022-10-17T13:17:57;99302.97;;;23.33;100.00
62164;BME280;48149;51.132;7.178;2022-10-17T13:20:24;99302.94;;;23.72;100.00
62164;BME280;48149;51.132;7.178;2022-10-17T13:22:50;99314.38;;;23.49;100.00
62164;BME280;48149;51.132;7.178;2022-10-17T13:25:19;99319.88;;;23.24;100.00
62164;BME280;48149;51.132;7.178;2022-10-17T13:27:45;99312.97;;;23.18;100.00
62164;BME280;48149;51.132;7.178;2022-10-17T13:30:21;99316.47;;;22.74;100.00
62164;BME280;48149;51.132;7.178;2022-10-17T13:32:46;99323.63;;;22.84;100.00
62164;BME280;48149;51.132;7.178;2022-10-17T13:35:13;99328.13;;;22.24;100.00
62164;BME280;48149;51.132;7.178;2022-10-17T13:37:39;99326.78;;;22.27;100.00
62164;BME280;48149;51.132;7.178;2022-10-17T13:40:05;99339.88;;;22.13;100.00
62164;BME280;48149;51.132;7.178;2022-10-17T13:42:38;99332.22;;;22.71;100.00
62164;BME280;48149;51.132;7.178;2022-10-17T13:45:09;99335.16;;;22.74;100.00
62164;BME280;48149;51.132;7.178;2022-10-17T13:47:37;99337.09;;;22.49;100.00
62164;BME280;48149;51.132;7.178;2022-10-17T13:50:03;99342.81;;;22.86;100.00
62164;BME280;48149;51.132;7.178;2022-10-17T13:52:29;99347.03;;;22.33;100.00
62164;BME280;48149;51.132;7.178;2022-10-17T13:54:54;99353.78;;;22.84;100.00
62164;BME280;48149;51.132;7.178;2022-10-17T13:59:46;99345.31;;;22.67;100.00
62164;BME280;48149;51.132;7.178;2022-10-17T14:02:14;99344.16;;;23.27;100.00
62164;BME280;48149;51.132;7.178;2022-10-17T14:04:40;99346.63;;;22.75;100.00
62164;BME280;48149;51.132;7.178;2022-10-17T14:07:20;99349.22;;;22.90;100.00
62164;BME280;48149;51.132;7.178;2022-10-17T14:09:47;99350.81;;;23.30;100.00
62164;BME280;48149;51.132;7.178;2022-10-17T14:12:12;99345.38;;;23.06;100.00
62164;BME280;48149;51.132;7.178;2022-10-17T14:14:38;99352.94;;;23.72;100.00
62164;BME280;48149;51.132;7.178;2022-10-17T14:17:25;99354.91;;;23.17;100.00
62164;BME280;48149;51.132;7.178;2022-10-17T14:19:55;99343.72;;;23.10;100.00
62164;BME280;48149;51.132;7.178;2022-10-17T14:24:46;99343.50;;;24.56;100.00
62164;BME280;48149;51.132;7.178;2022-10-17T14:27:25;99340.56;;;24.33;100.00
62164;BME280;48149;51.132;7.178;2022-10-17T14:29:52;99344.03;;;24.34;100.00
62164;BME280;48149;51.132;7.178;2022-10-17T14:32:17;99348.44;;;24.49;100.00
62164;BME280;48149;51.132;7.178;2022-10-17T14:34:43;99347.13;;;24.22;100.00
62164;BME280;48149;51.132;7.178;2022-10-17T14:37:18;99346.03;;;24.47;100.00
62164;BME280;48149;51.132;7.178;2022-10-17T14:39:51;99346.03;;;24.47;100.00
62164;BME280;48149;51.132;7.178;2022-10-17T14:42:19;99350.84;;;24.26;100.00